Time;durP1;ratioP1;P1;durP2;ratioP2;P2;SDS_P1;SDS_P2;PMS_P1;PMS_P2;Temp;Humidity;BMP_temperature;BMP_pressure;BME280_temperature;BME280_humidity;BME280_pressure;Samples;Min_cycle;Max_cycle;Signal;HPM_P1;HPM_P2
2023/12/20 00:04:03;;;;;;;;;;;;;;;5.63;100.00;95638.66;10592395;27;1998;-68
2023/12/20 00:09:17;;;;;;;;;;;;;;;5.61;100.00;95627.44;10611159;27;2097;-68
2023/12/20 00:14:25;;;;;;;;;;;;;;;5.63;100.00;95615.44;10589285;27;1980;-69
2023/12/20 00:19:33;;;;;;;;;;;;;;;5.61;100.00;95617.56;10587696;27;1970;-68
2023/12/20 00:24:38;;;;;;;;;;;;;;;5.64;100.00;95621.59;10585756;27;2248;-69
2023/12/20 00:29:50;;;;;;;;;;;;;;;5.67;100.00;95616.59;10603642;27;2146;-69
2023/12/20 00:34:52;;;;;;;;;;;;;;;5.76;100.00;95614.28;10599650;27;2122;-70
2023/12/20 00:39:59;;;;;;;;;;;;;;;5.78;100.00;95601.50;10588764;27;2008;-74
2023/12/20 00:45:04;;;;;;;;;;;;;;;5.79;100.00;95587.13;10594366;27;5043;-71
2023/12/20 00:50:10;;;;;;;;;;;;;;;5.85;100.00;95593.31;10604399;27;2161;-68
2023/12/20 00:55:20;;;;;;;;;;;;;;;5.93;100.00;95584.94;10606270;27;2043;-69
2023/12/20 01:00:27;;;;;;;;;;;;;;;5.88;100.00;95580.31;10595821;27;2397;-68
2023/12/20 01:05:45;;;;;;;;;;;;;;;5.91;100.00;95579.81;10607984;27;1983;-68
2023/12/20 01:10:52;;;;;;;;;;;;;;;5.97;100.00;95560.16;10603519;27;2071;-68
2023/12/20 01:15:56;;;;;;;;;;;;;;;5.97;100.00;95557.47;10586638;27;2095;-68
2023/12/20 01:21:02;;;;;;;;;;;;;;;6.03;100.00;95560.22;10601096;27;2110;-68
2023/12/20 01:26:06;;;;;;;;;;;;;;;6.00;100.00;95556.19;10602136;27;2150;-69
2023/12/20 01:31:10;;;;;;;;;;;;;;;6.00;100.00;95550.06;10593842;27;1976;-68
2023/12/20 01:36:14;;;;;;;;;;;;;;;6.08;100.00;95546.94;10597415;27;1944;-69
2023/12/20 01:41:24;;;;;;;;;;;;;;;6.07;100.00;95540.00;10583429;27;5045;-67
2023/12/20 01:46:28;;;;;;;;;;;;;;;6.01;100.00;95543.66;10590996;27;2094;-69
2023/12/20 01:51:32;;;;;;;;;;;;;;;6.02;100.00;95532.72;10599213;27;2419;-69
2023/12/20 01:56:38;;;;;;;;;;;;;;;6.01;100.00;95519.66;10586200;27;2039;-70
2023/12/20 02:01:45;;;;;;;;;;;;;;;6.03;100.00;95512.19;10572695;27;2410;-68
2023/12/20 02:06:52;;;;;;;;;;;;;;;6.04;100.00;95513.78;10598392;27;1998;-68
2023/12/20 02:11:56;;;;;;;;;;;;;;;6.07;100.00;95486.63;10583904;27;2060;-71
2023/12/20 02:17:06;;;;;;;;;;;;;;;6.09;100.00;95468.47;10591364;27;2090;-71
2023/12/20 02:22:17;;;;;;;;;;;;;;;6.12;100.00;95468.00;10595920;27;2119;-71
2023/12/20 02:27:21;;;;;;;;;;;;;;;6.14;100.00;95477.34;10597739;27;1971;-68
2023/12/20 02:32:27;;;;;;;;;;;;;;;6.25;100.00;95480.94;10596548;27;1989;-70
2023/12/20 02:37:30;;;;;;;;;;;;;;;6.30;100.00;95475.63;10562665;27;1900;-69
2023/12/20 02:42:47;;;;;;;;;;;;;;;6.30;100.00;95464.97;10580708;27;4982;-69
2023/12/20 02:47:51;;;;;;;;;;;;;;;6.27;100.00;95449.44;10593374;27;2266;-69
2023/12/20 02:52:54;;;;;;;;;;;;;;;6.18;100.00;95443.78;10587934;27;1979;-69
2023/12/20 02:58:04;;;;;;;;;;;;;;;6.18;100.00;95445.63;10604133;27;2232;-67
2023/12/20 03:03:08;;;;;;;;;;;;;;;6.27;100.00;95454.78;10597796;27;1941;-68
2023/12/20 03:08:13;;;;;;;;;;;;;;;6.36;100.00;95447.94;10601659;27;2293;-67
2023/12/20 03:13:16;;;;;;;;;;;;;;;6.34;100.00;95458.03;10591297;27;2080;-74
2023/12/20 03:18:46;;;;;;;;;;;;;;;6.43;100.00;95451.19;10602248;27;1979;-69
2023/12/20 03:23:49;;;;;;;;;;;;;;;6.47;100.00;95454.13;10586848;27;2116;-70
2023/12/20 03:28:54;;;;;;;;;;;;;;;6.54;100.00;95454.72;10588778;27;1967;-69
2023/12/20 03:33:57;;;;;;;;;;;;;;;6.53;100.00;95463.78;10571170;27;2075;-69
2023/12/20 03:39:05;;;;;;;;;;;;;;;6.62;100.00;95461.47;10583059;27;2157;-69
2023/12/20 03:44:12;;;;;;;;;;;;;;;6.61;100.00;95494.56;10588971;27;5199;-68
2023/12/20 03:49:15;;;;;;;;;;;;;;;6.55;100.00;95492.91;10580633;27;2043;-69
2023/12/20 03:54:19;;;;;;;;;;;;;;;6.54;100.00;95505.47;10603395;27;1990;-70
2023/12/20 03:59:21;;;;;;;;;;;;;;;6.45;100.00;95502.47;10588273;27;1949;-68
2023/12/20 04:04:26;;;;;;;;;;;;;;;6.41;100.00;95503.22;10590391;27;1980;-69
2023/12/20 04:09:31;;;;;;;;;;;;;;;6.20;100.00;95515.56;10602747;27;1961;-70
2023/12/20 04:14:42;;;;;;;;;;;;;;;6.09;100.00;95516.53;10612823;27;2102;-69
2023/12/20 04:19:48;;;;;;;;;;;;;;;6.04;100.00;95519.13;10591357;27;2032;-70
2023/12/20 04:24:54;;;;;;;;;;;;;;;5.94;100.00;95509.97;10604964;27;2001;-73
2023/12/20 04:29:57;;;;;;;;;;;;;;;5.84;100.00;95506.34;10605177;27;1965;-68
2023/12/20 04:35:12;;;;;;;;;;;;;;;5.81;100.00;95507.66;10603884;27;2110;-68
2023/12/20 04:40:15;;;;;;;;;;;;;;;5.81;100.00;95510.34;10583166;27;2129;-67
2023/12/20 04:45:19;;;;;;;;;;;;;;;5.76;100.00;95523.59;10609351;27;1965;-67
2023/12/20 04:50:22;;;;;;;;;;;;;;;5.63;100.00;95535.44;10599322;27;2155;-68
2023/12/20 04:55:38;;;;;;;;;;;;;;;5.51;100.00;95548.09;10608430;27;2045;-68
2023/12/20 05:00:48;;;;;;;;;;;;;;;5.42;100.00;95558.38;10604052;27;1999;-70
2023/12/20 05:05:56;;;;;;;;;;;;;;;5.14;100.00;95585.97;10595303;27;1969;-74
2023/12/20 05:10:59;;;;;;;;;;;;;;;4.95;100.00;95589.13;10586963;27;2131;-68
2023/12/20 05:16:05;;;;;;;;;;;;;;;4.76;100.00;95593.88;10598178;27;1995;-68
2023/12/20 05:21:08;;;;;;;;;;;;;;;4.64;100.00;95607.25;10602450;27;2310;-69
2023/12/20 05:26:11;;;;;;;;;;;;;;;4.57;100.00;95614.59;10582414;27;1925;-69
2023/12/20 05:31:14;;;;;;;;;;;;;;;4.56;100.00;95615.63;10592960;27;1963;-71
2023/12/20 05:36:25;;;;;;;;;;;;;;;4.49;100.00;95623.78;10598653;27;2038;-70
2023/12/20 05:41:30;;;;;;;;;;;;;;;4.55;100.00;95627.34;10602412;27;5035;-68
2023/12/20 05:46:42;;;;;;;;;;;;;;;4.45;100.00;95638.59;10578200;27;1919;-69
2023/12/20 05:51:46;;;;;;;;;;;;;;;4.44;100.00;95633.50;10574424;27;1953;-68
2023/12/20 05:56:50;;;;;;;;;;;;;;;4.42;100.00;95640.94;10585782;27;1985;-70
2023/12/20 06:01:56;;;;;;;;;;;;;;;4.39;100.00;95660.03;10594675;27;1935;-73
2023/12/20 06:07:01;;;;;;;;;;;;;;;4.24;100.00;95666.69;10591908;27;1930;-71
2023/12/20 06:12:12;;;;;;;;;;;;;;;4.18;100.00;95670.28;10585168;27;1974;-76
2023/12/20 06:17:16;;;;;;;;;;;;;;;4.12;100.00;95673.06;10580745;27;2063;-76
2023/12/20 06:22:21;;;;;;;;;;;;;;;4.02;100.00;95679.00;10584471;27;2115;-69
2023/12/20 06:27:26;;;;;;;;;;;;;;;3.95;100.00;95676.47;10605196;27;2051;-72
2023/12/20 06:32:34;;;;;;;;;;;;;;;3.91;100.00;95688.59;10609670;27;2299;-69
2023/12/20 06:37:42;;;;;;;;;;;;;;;3.83;100.00;95701.47;10607173;27;2082;-68
2023/12/20 06:42:46;;;;;;;;;;;;;;;3.80;100.00;95714.16;10607684;27;5104;-68
2023/12/20 06:48:06;;;;;;;;;;;;;;;3.73;100.00;95716.13;10588562;27;2045;-69
2023/12/20 06:53:16;;;;;;;;;;;;;;;3.67;100.00;95717.06;10627276;27;1968;-69
2023/12/20 06:58:28;;;;;;;;;;;;;;;3.68;100.00;95721.34;10592809;27;1933;-75
2023/12/20 07:03:39;;;;;;;;;;;;;;;3.70;100.00;95724.59;10623532;27;2140;-68
2023/12/20 07:08:46;;;;;;;;;;;;;;;3.71;100.00;95731.53;10607585;27;1987;-68
2023/12/20 07:14:03;;;;;;;;;;;;;;;3.71;100.00;95752.78;10584259;27;1944;-69
2023/12/20 07:19:25;;;;;;;;;;;;;;;3.68;100.00;95755.88;10602404;27;1882;-72
2023/12/20 07:24:39;;;;;;;;;;;;;;;3.73;100.00;95761.34;10601889;27;1902;-74
2023/12/20 07:29:44;;;;;;;;;;;;;;;3.75;100.00;95763.75;10600890;27;1914;-67
2023/12/20 07:34:47;;;;;;;;;;;;;;;3.78;100.00;95780.06;10604543;27;1998;-69
2023/12/20 07:39:55;;;;;;;;;;;;;;;3.76;100.00;95768.88;10596722;27;2232;-68
2023/12/20 07:45:00;;;;;;;;;;;;;;;3.80;100.00;95772.66;10604557;27;5327;-69
2023/12/20 07:50:17;;;;;;;;;;;;;;;3.88;100.00;95784.00;10599066;27;2167;-69
2023/12/20 07:55:21;;;;;;;;;;;;;;;3.94;100.00;95778.56;10599894;27;1867;-69
2023/12/20 08:00:31;;;;;;;;;;;;;;;3.97;100.00;95777.31;10603396;27;2525;-69
2023/12/20 08:05:36;;;;;;;;;;;;;;;4.01;100.00;95784.59;10598028;27;2011;-69
2023/12/20 08:10:44;;;;;;;;;;;;;;;3.95;100.00;95798.00;10600402;27;1979;-69
2023/12/20 08:15:55;;;;;;;;;;;;;;;3.94;100.00;95802.50;10594796;27;1943;-70
2023/12/20 08:21:11;;;;;;;;;;;;;;;3.81;100.00;95800.06;10606151;27;1990;-72
2023/12/20 08:26:16;;;;;;;;;;;;;;;3.75;100.00;95807.13;10601032;27;2117;-67
2023/12/20 08:31:23;;;;;;;;;;;;;;;3.85;100.00;95800.41;10579681;27;2035;-68
2023/12/20 08:36:29;;;;;;;;;;;;;;;3.84;100.00;95804.13;10593427;27;2059;-68
2023/12/20 08:41:33;;;;;;;;;;;;;;;3.83;100.00;95807.81;10595998;27;5295;-68
2023/12/20 08:46:37;;;;;;;;;;;;;;;3.92;100.00;95801.13;10594872;27;2313;-69
2023/12/20 08:51:41;;;;;;;;;;;;;;;3.97;100.00;95804.69;10566914;27;2115;-68
2023/12/20 08:56:51;;;;;;;;;;;;;;;4.04;100.00;95793.94;10595053;27;2517;-66
2023/12/20 09:01:56;;;;;;;;;;;;;;;4.07;100.00;95807.59;10595542;27;2000;-68
2023/12/20 09:06:59;;;;;;;;;;;;;;;4.27;100.00;95809.91;10593982;27;1972;-67
2023/12/20 09:12:04;;;;;;;;;;;;;;;4.21;100.00;95800.19;10589468;27;1983;-67
2023/12/20 09:17:11;;;;;;;;;;;;;;;4.29;100.00;95791.84;10572491;27;1941;-68
2023/12/20 09:22:15;;;;;;;;;;;;;;;4.41;100.00;95791.03;10578808;27;1884;-68
2023/12/20 09:27:22;;;;;;;;;;;;;;;4.27;100.00;95801.94;10595746;27;1906;-71
2023/12/20 09:32:29;;;;;;;;;;;;;;;4.28;100.00;95808.84;10592283;27;1870;-69
2023/12/20 09:37:32;;;;;;;;;;;;;;;4.33;100.00;95802.84;10598429;27;2082;-70
2023/12/20 09:42:36;;;;;;;;;;;;;;;4.31;100.00;95816.38;10579098;27;2028;-69
2023/12/20 09:47:44;;;;;;;;;;;;;;;4.30;100.00;95812.09;10592522;27;2269;-69
2023/12/20 09:52:48;;;;;;;;;;;;;;;4.33;100.00;95803.66;10577151;27;2410;-67
2023/12/20 09:57:54;;;;;;;;;;;;;;;4.34;100.00;95791.16;10571350;27;2052;-68
2023/12/20 10:03:09;;;;;;;;;;;;;;;4.41;100.00;95793.69;10610020;27;1994;-67
2023/12/20 10:08:36;;;;;;;;;;;;;;;4.61;100.00;95767.47;10580687;27;2089;-67
2023/12/20 10:13:40;;;;;;;;;;;;;;;4.96;100.00;95769.19;10578099;27;1975;-68
2023/12/20 10:18:51;;;;;;;;;;;;;;;5.23;100.00;95764.13;10566067;27;2107;-69
2023/12/20 10:24:00;;;;;;;;;;;;;;;5.34;100.00;95750.72;10594730;27;2004;-67
2023/12/20 10:29:06;;;;;;;;;;;;;;;5.46;100.00;95757.81;10592284;27;1940;-70
2023/12/20 10:34:10;;;;;;;;;;;;;;;5.40;100.00;95764.94;10599537;27;2125;-70
2023/12/20 10:39:14;;;;;;;;;;;;;;;5.55;100.00;95767.88;10590968;27;2244;-71
2023/12/20 10:44:17;;;;;;;;;;;;;;;5.49;100.00;95758.16;10575210;27;4754;-68
2023/12/20 10:49:21;;;;;;;;;;;;;;;5.38;100.00;95765.16;10593793;27;1945;-67
2023/12/20 10:54:24;;;;;;;;;;;;;;;5.37;100.00;95755.56;10599515;27;1968;-75
2023/12/20 10:59:31;;;;;;;;;;;;;;;5.17;100.00;95755.22;10586951;27;1889;-72
2023/12/20 11:04:37;;;;;;;;;;;;;;;5.03;100.00;95749.38;10596268;27;1914;-68
2023/12/20 11:09:45;;;;;;;;;;;;;;;5.04;100.00;95751.00;10578173;27;2118;-70
2023/12/20 11:14:50;;;;;;;;;;;;;;;5.01;100.00;95746.13;10586458;27;1962;-69
2023/12/20 11:19:56;;;;;;;;;;;;;;;5.09;100.00;95748.44;10602834;27;1975;-69
2023/12/20 11:25:03;;;;;;;;;;;;;;;5.06;100.00;95732.91;10580869;27;1942;-67
2023/12/20 11:30:09;;;;;;;;;;;;;;;5.02;100.00;95720.28;10585377;27;1977;-68
2023/12/20 11:35:15;;;;;;;;;;;;;;;5.23;100.00;95711.63;10600884;27;1878;-68
2023/12/20 11:40:22;;;;;;;;;;;;;;;5.37;100.00;95710.25;10600942;27;1940;-67
2023/12/20 11:45:27;;;;;;;;;;;;;;;5.37;100.00;95707.59;10578371;27;2276;-69
2023/12/20 11:50:33;;;;;;;;;;;;;;;5.73;100.00;95694.81;10601231;27;2229;-68
2023/12/20 11:55:41;;;;;;;;;;;;;;;5.97;100.00;95696.22;10580103;27;2080;-68
2023/12/20 12:00:44;;;;;;;;;;;;;;;5.91;100.00;95681.19;10585450;27;1914;-68
2023/12/20 12:05:51;;;;;;;;;;;;;;;5.83;100.00;95678.94;10600841;27;1902;-67
2023/12/20 12:10:56;;;;;;;;;;;;;;;5.96;100.00;95667.94;10583699;27;2004;-70
2023/12/20 12:16:01;;;;;;;;;;;;;;;5.99;100.00;95674.66;10595550;27;2095;-68
2023/12/20 12:21:04;;;;;;;;;;;;;;;6.03;100.00;95666.94;10594957;27;2233;-69
2023/12/20 12:26:18;;;;;;;;;;;;;;;6.00;100.00;95662.13;10598126;27;1941;-68
2023/12/20 12:31:22;;;;;;;;;;;;;;;5.93;100.00;95657.78;10588467;27;1966;-68
2023/12/20 12:36:34;;;;;;;;;;;;;;;5.92;100.00;95655.34;10584948;27;2067;-68
2023/12/20 12:41:39;;;;;;;;;;;;;;;5.92;100.00;95648.16;10583202;27;4940;-68
2023/12/20 12:46:44;;;;;;;;;;;;;;;5.77;100.00;95642.56;10581647;27;2200;-70
2023/12/20 12:51:56;;;;;;;;;;;;;;;5.72;100.00;95629.16;10599490;27;2091;-73
2023/12/20 12:57:00;;;;;;;;;;;;;;;5.50;100.00;95668.31;10598606;27;2131;-73
2023/12/20 13:02:03;;;;;;;;;;;;;;;4.85;100.00;95678.47;10601787;27;2118;-68
2023/12/20 13:07:12;;;;;;;;;;;;;;;4.61;100.00;95692.94;10601353;27;1910;-67
2023/12/20 13:12:18;;;;;;;;;;;;;;;4.29;100.00;95693.38;10599349;27;2075;-66
2023/12/20 13:17:23;;;;;;;;;;;;;;;4.07;100.00;95697.72;10579997;27;1955;-67
2023/12/20 13:22:34;;;;;;;;;;;;;;;3.95;100.00;95699.59;10576150;27;1932;-68
2023/12/20 13:27:39;;;;;;;;;;;;;;;3.80;100.00;95695.56;10569869;27;1894;-66
2023/12/20 13:32:44;;;;;;;;;;;;;;;3.86;100.00;95717.75;10601112;27;2000;-65
2023/12/20 13:37:47;;;;;;;;;;;;;;;3.93;100.00;95717.63;10581162;27;1903;-67
2023/12/20 13:42:51;;;;;;;;;;;;;;;4.02;100.00;95716.25;10586678;27;4944;-68
2023/12/20 13:47:57;;;;;;;;;;;;;;;3.97;100.00;95708.16;10591239;27;2258;-68
2023/12/20 13:53:05;;;;;;;;;;;;;;;4.05;100.00;95713.91;10593788;27;1919;-67
2023/12/20 13:58:11;;;;;;;;;;;;;;;4.12;100.00;95716.44;10576863;27;2396;-70
2023/12/20 14:03:15;;;;;;;;;;;;;;;4.06;100.00;95722.69;10592690;27;1962;-70
2023/12/20 14:08:20;;;;;;;;;;;;;;;4.12;100.00;95720.94;10577323;27;1917;-70
2023/12/20 14:13:26;;;;;;;;;;;;;;;4.12;100.00;95711.13;10576380;27;2011;-69
2023/12/20 14:18:40;;;;;;;;;;;;;;;4.08;100.00;95720.63;10578313;27;1951;-69
2023/12/20 14:24:03;;;;;;;;;;;;;;;4.06;100.00;95717.38;10610204;27;2123;-70
2023/12/20 14:29:07;;;;;;;;;;;;;;;3.92;100.00;95716.81;10569619;27;2047;-70
2023/12/20 14:34:11;;;;;;;;;;;;;;;3.93;100.00;95733.59;10575235;27;1851;-71
2023/12/20 14:39:17;;;;;;;;;;;;;;;3.90;100.00;95736.72;10581345;27;1799;-71
2023/12/20 14:44:22;;;;;;;;;;;;;;;3.98;100.00;95739.81;10591450;27;1963;-70
2023/12/20 14:49:26;;;;;;;;;;;;;;;3.92;100.00;95732.78;10585134;27;2279;-70
2023/12/20 14:54:31;;;;;;;;;;;;;;;3.94;100.00;95729.88;10607321;27;2428;-70
2023/12/20 14:59:43;;;;;;;;;;;;;;;3.95;100.00;95729.66;10596491;27;1962;-71
2023/12/20 15:04:48;;;;;;;;;;;;;;;3.71;100.00;95742.16;10584666;27;1930;-73
2023/12/20 15:09:51;;;;;;;;;;;;;;;3.56;100.00;95739.13;10584362;27;2023;-70
2023/12/20 15:15:02;;;;;;;;;;;;;;;3.58;100.00;95730.94;10596741;27;2123;-71
2023/12/20 15:20:13;;;;;;;;;;;;;;;3.63;100.00;95737.19;10589681;27;2078;-71
2023/12/20 15:25:28;;;;;;;;;;;;;;;3.55;100.00;95732.19;10593968;27;2127;-71
2023/12/20 15:30:33;;;;;;;;;;;;;;;3.68;100.00;95734.63;10595979;27;1976;-71
2023/12/20 15:35:39;;;;;;;;;;;;;;;3.69;100.00;95722.97;10585317;27;2071;-70
2023/12/20 15:40:43;;;;;;;;;;;;;;;3.67;100.00;95724.22;10598703;27;4900;-71
2023/12/20 15:45:47;;;;;;;;;;;;;;;3.67;100.00;95717.06;10585970;27;2043;-70
2023/12/20 15:50:58;;;;;;;;;;;;;;;3.42;100.00;95714.63;10598313;27;2414;-69
2023/12/20 15:56:05;;;;;;;;;;;;;;;3.24;100.00;95709.41;10583672;27;2081;-72
2023/12/20 16:01:09;;;;;;;;;;;;;;;3.01;100.00;95718.16;10578610;27;2127;-70
2023/12/20 16:06:16;;;;;;;;;;;;;;;2.83;100.00;95726.16;10598383;27;1939;-71
2023/12/20 16:11:22;;;;;;;;;;;;;;;2.75;100.00;95729.16;10604142;27;2059;-69
2023/12/20 16:16:28;;;;;;;;;;;;;;;2.67;100.00;95736.41;10583250;27;2104;-71
2023/12/20 16:21:32;;;;;;;;;;;;;;;2.68;100.00;95731.91;10601257;27;1886;-75
2023/12/20 16:26:36;;;;;;;;;;;;;;;2.61;100.00;95732.00;10595665;27;2025;-75
2023/12/20 16:31:41;;;;;;;;;;;;;;;2.58;100.00;95748.34;10608650;27;2067;-73
2023/12/20 16:36:53;;;;;;;;;;;;;;;2.85;100.00;95751.44;10596115;27;1963;-70
2023/12/20 16:41:59;;;;;;;;;;;;;;;2.81;100.00;95749.50;10599535;27;4920;-70
2023/12/20 16:47:08;;;;;;;;;;;;;;;2.91;100.00;95757.69;10602700;27;2694;-69
2023/12/20 16:52:15;;;;;;;;;;;;;;;2.95;100.00;95758.88;10586848;27;1986;-68
2023/12/20 16:57:21;;;;;;;;;;;;;;;2.89;100.00;95765.09;10583386;27;2102;-70
2023/12/20 17:02:25;;;;;;;;;;;;;;;2.83;100.00;95773.97;10596863;27;1922;-69
2023/12/20 17:07:30;;;;;;;;;;;;;;;2.63;100.00;95761.75;10604918;27;2103;-70
2023/12/20 17:12:35;;;;;;;;;;;;;;;2.51;100.00;95763.53;10601764;27;1914;-70
2023/12/20 17:17:40;;;;;;;;;;;;;;;2.39;100.00;95760.81;10600079;27;2091;-70
2023/12/20 17:22:51;;;;;;;;;;;;;;;2.37;100.00;95775.34;10584314;27;2022;-69
2023/12/20 17:27:56;;;;;;;;;;;;;;;2.50;100.00;95782.34;10573925;27;2167;-70
2023/12/20 17:33:00;;;;;;;;;;;;;;;2.68;100.00;95759.25;10596552;27;2200;-69
2023/12/20 17:38:09;;;;;;;;;;;;;;;2.83;100.00;95750.88;10560591;27;1937;-71
2023/12/20 17:43:19;;;;;;;;;;;;;;;2.95;100.00;95738.44;10591856;27;1874;-71
2023/12/20 17:48:29;;;;;;;;;;;;;;;3.09;100.00;95744.38;10600882;27;2007;-70
2023/12/20 17:53:36;;;;;;;;;;;;;;;3.15;100.00;95743.47;10574395;27;2134;-68
2023/12/20 17:58:42;;;;;;;;;;;;;;;3.27;100.00;95750.66;10590980;27;2107;-69
2023/12/20 18:03:49;;;;;;;;;;;;;;;3.29;100.00;95738.75;10581303;27;2004;-69
2023/12/20 18:08:57;;;;;;;;;;;;;;;3.31;100.00;95725.22;10578105;27;2050;-69
2023/12/20 18:14:00;;;;;;;;;;;;;;;3.29;100.00;95738.75;10585208;27;2328;-68
2023/12/20 18:19:07;;;;;;;;;;;;;;;3.34;100.00;95754.81;10586600;27;1944;-70
2023/12/20 18:24:11;;;;;;;;;;;;;;;3.41;100.00;95746.75;10595803;27;1961;-69
2023/12/20 18:34:43;;;;;;;;;;;;;;;3.58;100.00;95766.31;10594264;27;1952;-70
2023/12/20 18:39:50;;;;;;;;;;;;;;;3.57;100.00;95775.31;10593838;27;1984;-70
2023/12/20 18:44:56;;;;;;;;;;;;;;;3.48;100.00;95779.34;10601705;27;4916;-74
2023/12/20 18:50:08;;;;;;;;;;;;;;;3.47;100.00;95772.41;10600157;27;2538;-70
2023/12/20 18:55:12;;;;;;;;;;;;;;;3.47;100.00;95780.38;10603818;27;2175;-70
2023/12/20 19:00:15;;;;;;;;;;;;;;;3.49;100.00;95783.59;10596998;27;2017;-71
2023/12/20 19:05:26;;;;;;;;;;;;;;;3.47;100.00;95765.25;10598144;27;1905;-70
2023/12/20 19:10:33;;;;;;;;;;;;;;;3.40;100.00;95766.38;10579191;27;2744;-72
2023/12/20 19:15:37;;;;;;;;;;;;;;;3.37;100.00;95751.72;10581622;27;2134;-68
2023/12/20 19:20:43;;;;;;;;;;;;;;;3.29;100.00;95754.69;10597332;27;1921;-70
2023/12/20 19:25:47;;;;;;;;;;;;;;;3.19;100.00;95752.59;10585701;27;2109;-72
2023/12/20 19:30:50;;;;;;;;;;;;;;;3.14;100.00;95759.63;10595442;27;1910;-73
2023/12/20 19:36:04;;;;;;;;;;;;;;;3.11;100.00;95750.25;10595477;27;1996;-74
2023/12/20 19:46:36;;;;;;;;;;;;;;;3.32;100.00;95754.25;10602643;27;2381;-71
2023/12/20 19:51:43;;;;;;;;;;;;;;;3.46;100.00;95745.03;10601373;27;2807;-70
2023/12/20 19:56:56;;;;;;;;;;;;;;;3.48;100.00;95737.63;10600596;27;1881;-71
2023/12/20 20:02:01;;;;;;;;;;;;;;;3.55;100.00;95726.88;10598721;27;1975;-70
2023/12/20 20:07:14;;;;;;;;;;;;;;;3.66;100.00;95727.94;10602320;27;1925;-69
2023/12/20 20:12:24;;;;;;;;;;;;;;;3.71;100.00;95715.56;10603001;27;2014;-71
2023/12/20 20:17:28;;;;;;;;;;;;;;;3.74;100.00;95717.75;10599641;27;1830;-70
2023/12/20 20:22:35;;;;;;;;;;;;;;;3.77;100.00;95709.31;10604448;27;1996;-70
2023/12/20 20:33:15;;;;;;;;;;;;;;;3.87;100.00;95694.63;10599712;27;2677;-70
2023/12/20 20:38:42;;;;;;;;;;;;;;;3.84;100.00;95716.38;10604267;27;1987;-71
2023/12/20 20:43:45;;;;;;;;;;;;;;;3.76;100.00;95702.41;10580491;27;1947;-69
2023/12/20 20:48:56;;;;;;;;;;;;;;;3.71;100.00;95694.31;10609827;27;2209;-71
2023/12/20 20:54:05;;;;;;;;;;;;;;;3.70;100.00;95684.72;10604546;27;1979;-72
2023/12/20 20:59:23;;;;;;;;;;;;;;;3.73;100.00;95692.22;10561126;27;1976;-70
2023/12/20 21:04:28;;;;;;;;;;;;;;;3.75;100.00;95695.47;10595907;27;2000;-69
2023/12/20 21:09:35;;;;;;;;;;;;;;;3.63;100.00;95676.06;10591954;27;1933;-73
2023/12/20 21:14:44;;;;;;;;;;;;;;;3.57;100.00;95684.16;10601965;27;1984;-73
2023/12/20 21:20:00;;;;;;;;;;;;;;;3.47;100.00;95674.06;10602499;27;1904;-73
2023/12/20 21:25:08;;;;;;;;;;;;;;;3.39;100.00;95677.09;10558345;27;1938;-68
2023/12/20 21:30:12;;;;;;;;;;;;;;;3.38;100.00;95678.94;10576459;27;1933;-69
2023/12/20 21:35:16;;;;;;;;;;;;;;;3.30;100.00;95671.28;10585824;27;2334;-68
2023/12/20 21:40:22;;;;;;;;;;;;;;;3.30;100.00;95655.34;10587254;27;2035;-67
2023/12/20 21:45:25;;;;;;;;;;;;;;;3.36;100.00;95653.63;10612483;27;2078;-69
2023/12/20 21:50:30;;;;;;;;;;;;;;;3.24;100.00;95638.50;10579341;27;2280;-68
2023/12/20 21:55:41;;;;;;;;;;;;;;;3.25;100.00;95628.69;10581046;27;2078;-68
2023/12/20 22:00:45;;;;;;;;;;;;;;;3.20;100.00;95632.03;10564731;27;2435;-74
2023/12/20 22:05:52;;;;;;;;;;;;;;;3.19;100.00;95638.38;10594651;27;2066;-69
2023/12/20 22:11:01;;;;;;;;;;;;;;;3.12;100.00;95634.22;10577982;27;1919;-68
2023/12/20 22:16:13;;;;;;;;;;;;;;;3.19;100.00;95627.75;10596559;27;1866;-70
2023/12/20 22:21:17;;;;;;;;;;;;;;;3.20;100.00;95626.72;10585879;27;1946;-71
2023/12/20 22:26:38;;;;;;;;;;;;;;;3.29;100.00;95627.16;10596878;27;2071;-69
2023/12/20 22:31:53;;;;;;;;;;;;;;;3.23;100.00;95628.09;10597884;27;1981;-69
2023/12/20 22:36:56;;;;;;;;;;;;;;;3.21;100.00;95612.38;10597823;27;1972;-69
2023/12/20 22:41:59;;;;;;;;;;;;;;;3.17;100.00;95594.47;10594030;27;4984;-68
2023/12/20 22:47:17;;;;;;;;;;;;;;;3.20;100.00;95581.56;10592228;27;2185;-71
2023/12/20 22:52:28;;;;;;;;;;;;;;;3.18;100.00;95567.72;10592426;27;2083;-67
2023/12/20 22:57:37;;;;;;;;;;;;;;;3.16;100.00;95569.78;10566322;27;2273;-68
2023/12/20 23:02:41;;;;;;;;;;;;;;;3.27;100.00;95559.38;10596136;27;2130;-68
2023/12/20 23:07:44;;;;;;;;;;;;;;;3.35;100.00;95548.38;10595119;27;2070;-67
2023/12/20 23:12:51;;;;;;;;;;;;;;;3.44;100.00;95539.03;10587680;27;1984;-68
2023/12/20 23:17:57;;;;;;;;;;;;;;;3.53;100.00;95537.63;10597588;27;1877;-73
2023/12/20 23:23:02;;;;;;;;;;;;;;;3.55;100.00;95548.81;10584575;27;2441;-72
2023/12/20 23:28:06;;;;;;;;;;;;;;;3.58;100.00;95536.91;10600328;27;2075;-68
2023/12/20 23:33:11;;;;;;;;;;;;;;;3.64;100.00;95507.53;10583403;27;2017;-68
2023/12/20 23:38:16;;;;;;;;;;;;;;;3.66;100.00;95500.13;10601679;27;1925;-68
2023/12/20 23:43:23;;;;;;;;;;;;;;;3.69;100.00;95496.19;10602927;27;1878;-69
2023/12/20 23:48:29;;;;;;;;;;;;;;;3.71;100.00;95486.13;10584412;27;2112;-72
2023/12/20 23:53:40;;;;;;;;;;;;;;;3.69;100.00;95477.56;10595160;27;2004;-67
2023/12/20 23:58:49;;;;;;;;;;;;;;;3.74;100.00;95448.44;10581411;27;2017;-70
